Time;durP1;ratioP1;P1;durP2;ratioP2;P2;SDS_P1;SDS_P2;PMS_P1;PMS_P2;Temp;Humidity;BMP_temperature;BMP_pressure;BME280_temperature;BME280_humidity;BME280_pressure;Samples;Min_cycle;Max_cycle;Signal;HPM_P1;HPM_P2
2022/01/29 00:00:13;;;;;;;29.85;16.13;;;6.90;55.10;;;;;;4976866;28;20035;-85
2022/01/29 00:02:40;;;;;;;26.85;15.82;;;6.90;55.00;;;;;;4986292;28;20397;-84
2022/01/29 00:05:06;;;;;;;26.15;15.77;;;6.90;55.00;;;;;;4977325;28;20034;-84
2022/01/29 00:07:32;;;;;;;28.50;16.45;;;6.90;55.00;;;;;;4985587;28;20170;-83
2022/01/29 00:10:03;;;;;;;27.50;15.95;;;6.90;54.90;;;;;;4986102;28;20695;-84
2022/01/29 00:12:30;;;;;;;26.88;15.98;;;6.90;55.00;;;;;;4994646;28;20030;-85
2022/01/29 00:14:57;;;;;;;30.35;16.27;;;6.90;55.00;;;;;;4978287;28;20030;-83
2022/01/29 00:17:23;;;;;;;29.20;16.25;;;6.90;55.00;;;;;;4997401;28;20030;-83
2022/01/29 00:19:49;;;;;;;27.63;16.02;;;6.90;55.00;;;;;;4996521;28;20030;-84
2022/01/29 00:22:15;;;;;;;27.40;16.27;;;6.90;55.00;;;;;;4978528;28;20044;-83
2022/01/29 00:24:43;;;;;;;25.25;15.70;;;6.80;54.90;;;;;;4996630;28;20062;-86
2022/01/29 00:27:10;;;;;;;26.17;15.98;;;6.90;54.90;;;;;;4989742;28;20116;-85
2022/01/29 00:29:41;;;;;;;28.75;16.58;;;6.80;54.90;;;;;;4995540;28;20091;-86
2022/01/29 00:32:09;;;;;;;27.02;16.10;;;6.80;54.80;;;;;;4962872;28;20034;-84
2022/01/29 00:34:35;;;;;;;28.70;16.10;;;6.80;54.80;;;;;;4996111;28;20061;-85
2022/01/29 00:37:01;;;;;;;25.45;15.68;;;6.80;54.90;;;;;;4977659;28;20404;-85
2022/01/29 00:39:26;;;;;;;26.25;15.88;;;6.80;54.80;;;;;;4995783;28;20030;-85
2022/01/29 00:41:52;;;;;;;25.63;15.68;;;6.80;54.70;;;;;;4994787;28;20083;-87
2022/01/29 00:44:18;;;;;;;27.38;15.80;;;6.80;54.80;;;;;;4962281;28;20417;-83
2022/01/29 00:46:44;;;;;;;28.58;15.45;;;6.80;54.80;;;;;;4995357;28;20045;-85
2022/01/29 00:49:12;;;;;;;26.73;16.00;;;6.80;54.70;;;;;;4961924;28;20064;-84
2022/01/29 00:51:38;;;;;;;25.42;15.77;;;6.80;54.70;;;;;;4993299;28;20035;-84
2022/01/29 00:54:05;;;;;;;29.20;16.77;;;6.80;54.70;;;;;;4996516;28;20057;-84
2022/01/29 00:56:31;;;;;;;29.85;16.42;;;6.80;54.70;;;;;;4979652;28;20042;-83
2022/01/29 00:58:57;;;;;;;26.90;16.15;;;6.80;54.80;;;;;;4977558;28;20044;-83
2022/01/29 01:01:23;;;;;;;27.75;16.58;;;6.80;54.80;;;;;;4993605;28;20516;-84
2022/01/29 01:03:50;;;;;;;26.27;14.88;;;6.80;54.80;;;;;;4977940;28;20041;-84
2022/01/29 01:06:16;;;;;;;27.25;16.27;;;6.80;54.80;;;;;;4977612;28;20506;-85
2022/01/29 01:08:42;;;;;;;26.83;16.75;;;6.70;54.80;;;;;;4978216;28;20026;-84
2022/01/29 01:11:08;;;;;;;24.95;15.00;;;6.80;54.90;;;;;;4976876;28;20057;-84
2022/01/29 01:13:35;;;;;;;25.55;15.80;;;6.80;54.80;;;;;;4980440;28;20026;-84
2022/01/29 01:16:01;;;;;;;29.20;16.65;;;6.80;54.80;;;;;;4979372;28;20096;-85
2022/01/29 01:18:27;;;;;;;29.10;15.65;;;6.80;54.80;;;;;;4972098;28;20033;-83
2022/01/29 01:20:53;;;;;;;29.45;16.35;;;6.70;55.30;;;;;;4998532;28;20037;-85
2022/01/29 01:23:20;;;;;;;27.15;15.70;;;6.70;54.80;;;;;;4977855;28;20045;-84
2022/01/29 01:25:46;;;;;;;28.70;16.48;;;6.70;54.70;;;;;;4994224;28;20209;-85
2022/01/29 01:28:12;;;;;;;28.17;16.42;;;6.70;54.70;;;;;;4994329;28;20034;-84
2022/01/29 01:30:38;;;;;;;26.38;15.63;;;6.70;54.70;;;;;;4993880;28;20092;-84
2022/01/29 01:33:05;;;;;;;25.23;14.85;;;6.70;54.70;;;;;;4977770;28;20041;-84
2022/01/29 01:35:37;;;;;;;24.63;15.00;;;6.70;54.70;;;;;;4977847;28;20041;-83
2022/01/29 01:40:35;;;;;;;30.08;15.90;;;6.70;54.70;;;;;;4978246;28;20041;-84
2022/01/29 01:43:01;;;;;;;27.58;16.90;;;6.70;54.70;;;;;;4962691;28;20070;-84
2022/01/29 01:45:28;;;;;;;28.40;16.20;;;6.70;54.60;;;;;;4994787;28;20112;-84
2022/01/29 01:47:55;;;;;;;27.70;15.85;;;6.70;54.60;;;;;;4995048;28;20053;-85
2022/01/29 01:50:21;;;;;;;26.83;16.08;;;6.70;54.60;;;;;;4969501;28;20041;-84
2022/01/29 01:52:49;;;;;;;25.15;15.00;;;6.70;54.60;;;;;;4978824;28;20033;-85
2022/01/29 01:55:15;;;;;;;28.58;15.95;;;6.70;54.60;;;;;;4970778;28;21497;-85
2022/01/29 01:57:41;;;;;;;26.33;15.50;;;6.70;54.50;;;;;;4968482;28;20064;-84
2022/01/29 02:00:08;;;;;;;30.15;17.13;;;6.70;54.60;;;;;;4963431;28;20042;-85
2022/01/29 02:02:40;;;;;;;26.63;15.73;;;6.70;54.50;;;;;;4999054;28;20038;-85
2022/01/29 02:05:08;;;;;;;26.88;15.52;;;6.70;54.50;;;;;;4966798;28;20515;-87
2022/01/29 02:07:34;;;;;;;27.15;16.02;;;6.60;54.50;;;;;;4974156;28;20030;-85
2022/01/29 02:10:00;;;;;;;26.88;15.45;;;6.70;54.60;;;;;;4980478;28;20058;-86
2022/01/29 02:12:32;;;;;;;27.50;16.13;;;6.60;54.50;;;;;;4981415;28;20057;-86
2022/01/29 02:15:02;;;;;;;26.65;16.48;;;6.60;54.50;;;;;;4981092;28;20029;-86
2022/01/29 02:17:28;;;;;;;26.90;15.90;;;6.70;54.50;;;;;;4980693;28;20049;-85
2022/01/29 02:19:54;;;;;;;25.48;15.07;;;6.60;54.50;;;;;;4964657;28;20924;-85
2022/01/29 02:22:20;;;;;;;25.40;15.10;;;6.60;55.00;;;;;;4957131;28;20030;-86
2022/01/29 02:24:46;;;;;;;25.70;15.75;;;6.60;54.40;;;;;;4978278;28;20041;-83
2022/01/29 02:27:12;;;;;;;27.67;15.73;;;6.60;54.40;;;;;;4995322;28;20061;-84
2022/01/29 02:29:38;;;;;;;23.90;15.55;;;6.60;54.50;;;;;;4989999;28;20065;-83
2022/01/29 02:32:04;;;;;;;28.33;16.13;;;6.60;54.50;;;;;;4965155;28;20038;-84
2022/01/29 02:34:30;;;;;;;29.58;15.80;;;6.60;54.50;;;;;;4990104;28;20034;-83
2022/01/29 02:36:56;;;;;;;26.48;16.48;;;6.60;54.50;;;;;;4989678;28;20085;-82
2022/01/29 02:39:23;;;;;;;27.48;16.92;;;6.60;54.50;;;;;;4972707;28;20050;-84
2022/01/29 02:41:49;;;;;;;27.80;16.23;;;6.60;54.50;;;;;;4989360;28;20132;-84
2022/01/29 02:44:21;;;;;;;27.35;15.75;;;6.60;54.60;;;;;;4978469;28;20034;-84
2022/01/29 02:49:14;;;;;;;25.63;16.23;;;6.60;54.60;;;;;;4994198;28;20041;-84
2022/01/29 02:51:49;;;;;;;27.98;16.98;;;6.60;54.60;;;;;;4974400;28;20416;-84
2022/01/29 02:54:16;;;;;;;28.52;16.73;;;6.60;54.60;;;;;;4979610;28;20477;-84
2022/01/29 02:56:42;;;;;;;28.98;16.45;;;6.60;54.50;;;;;;4993428;28;20753;-83
2022/01/29 02:59:08;;;;;;;26.92;16.25;;;6.60;54.50;;;;;;4977696;28;20058;-84
2022/01/29 03:01:35;;;;;;;27.83;16.08;;;6.60;54.60;;;;;;4958621;28;20042;-84
2022/01/29 03:04:02;;;;;;;29.77;17.10;;;6.60;54.60;;;;;;4979785;28;20054;-83
2022/01/29 03:06:29;;;;;;;27.33;16.63;;;6.50;54.60;;;;;;4995078;28;20104;-85
2022/01/29 03:08:55;;;;;;;29.40;16.52;;;6.50;54.50;;;;;;4978867;28;20060;-85
2022/01/29 03:11:22;;;;;;;29.25;17.08;;;6.60;54.60;;;;;;4985509;28;20051;-84
2022/01/29 03:13:49;;;;;;;27.63;17.50;;;6.60;54.50;;;;;;4965889;28;20035;-84
2022/01/29 03:16:17;;;;;;;30.73;17.35;;;6.50;54.50;;;;;;4948631;28;20101;-86
2022/01/29 03:18:43;;;;;;;28.85;16.63;;;6.50;54.40;;;;;;4961261;28;20058;-83
2022/01/29 03:21:09;;;;;;;29.25;17.27;;;6.50;54.40;;;;;;4940618;28;20177;-85
2022/01/29 03:23:35;;;;;;;28.40;16.27;;;6.50;54.40;;;;;;4947643;28;20047;-84
2022/01/29 03:26:01;;;;;;;27.83;16.60;;;6.50;54.50;;;;;;4963147;28;20042;-86
2022/01/29 03:28:27;;;;;;;31.40;16.70;;;6.50;54.40;;;;;;4964528;28;20540;-85
2022/01/29 03:30:55;;;;;;;28.50;16.75;;;6.50;54.40;;;;;;4946839;28;20419;-84
2022/01/29 03:33:24;;;;;;;30.10;17.45;;;6.50;54.40;;;;;;4979152;28;20038;-84
2022/01/29 03:35:51;;;;;;;30.38;17.00;;;6.50;54.40;;;;;;4962861;28;20125;-83
2022/01/29 03:38:18;;;;;;;28.95;16.58;;;6.50;54.40;;;;;;4961140;28;20041;-83
2022/01/29 03:40:47;;;;;;;28.98;16.60;;;6.50;54.50;;;;;;4964074;28;20069;-86
2022/01/29 03:43:15;;;;;;;27.67;16.60;;;6.50;54.50;;;;;;4962005;28;20421;-84
2022/01/29 03:45:41;;;;;;;29.75;17.55;;;6.50;54.50;;;;;;4955154;28;20105;-84
2022/01/29 03:48:07;;;;;;;30.25;16.92;;;6.50;54.40;;;;;;4964746;28;20042;-85
2022/01/29 03:50:35;;;;;;;28.55;17.15;;;6.50;54.40;;;;;;4963431;28;20067;-85
2022/01/29 03:53:01;;;;;;;29.63;16.50;;;6.50;54.50;;;;;;4956022;28;20343;-85
2022/01/29 03:55:27;;;;;;;30.52;17.13;;;6.50;54.50;;;;;;4963690;28;20039;-83
2022/01/29 03:57:53;;;;;;;31.50;17.98;;;6.50;54.50;;;;;;4947763;28;20488;-83
2022/01/29 04:00:19;;;;;;;27.25;16.42;;;6.50;54.50;;;;;;4963720;28;20041;-83
2022/01/29 04:02:45;;;;;;;31.23;17.45;;;6.50;54.50;;;;;;4978998;28;20277;-83
2022/01/29 04:05:11;;;;;;;32.47;18.52;;;6.50;54.60;;;;;;4974368;28;20062;-83
2022/01/29 04:07:38;;;;;;;32.75;18.33;;;6.50;54.50;;;;;;4978036;28;20661;-84
2022/01/29 04:10:05;;;;;;;31.30;17.55;;;6.50;54.50;;;;;;4956091;28;20043;-83
2022/01/29 04:12:37;;;;;;;30.05;18.00;;;6.50;54.50;;;;;;4979647;28;20649;-83
2022/01/29 04:15:03;;;;;;;33.60;18.55;;;6.50;54.50;;;;;;4973175;28;20026;-84
2022/01/29 04:17:29;;;;;;;33.55;18.55;;;6.50;54.50;;;;;;4960483;28;20453;-83
2022/01/29 04:19:55;;;;;;;29.58;17.02;;;6.50;54.50;;;;;;4962104;28;20073;-83
2022/01/29 04:22:21;;;;;;;34.53;18.08;;;6.50;54.50;;;;;;4972529;28;20035;-84
2022/01/29 04:24:47;;;;;;;30.60;18.08;;;6.50;54.40;;;;;;4961346;28;20497;-83
2022/01/29 04:27:19;;;;;;;31.83;18.15;;;6.50;54.40;;;;;;4978913;28;20027;-86
2022/01/29 04:29:54;;;;;;;28.70;17.33;;;6.50;54.40;;;;;;4971997;28;20027;-85
2022/01/29 04:32:29;;;;;;;29.00;17.60;;;6.40;54.30;;;;;;4977101;28;20536;-85
2022/01/29 04:34:55;;;;;;;32.78;19.15;;;6.40;54.30;;;;;;4972299;28;20877;-85
2022/01/29 04:37:21;;;;;;;28.67;17.35;;;6.40;54.30;;;;;;4954564;28;20042;-86
2022/01/29 04:39:47;;;;;;;34.53;19.27;;;6.40;54.30;;;;;;4962359;28;20179;-86
2022/01/29 04:42:13;;;;;;;31.33;18.08;;;6.40;54.30;;;;;;4978181;28;20277;-86
2022/01/29 04:44:39;;;;;;;31.40;18.13;;;6.40;54.30;;;;;;4962306;28;20034;-85
2022/01/29 04:47:05;;;;;;;28.77;17.30;;;6.40;54.30;;;;;;4961480;28;20073;-85
2022/01/29 04:49:30;;;;;;;31.17;19.17;;;6.40;54.30;;;;;;4964041;28;20087;-85
2022/01/29 04:51:56;;;;;;;30.98;17.67;;;6.40;54.30;;;;;;4975720;28;20043;-86
2022/01/29 04:54:22;;;;;;;29.48;18.23;;;6.40;54.20;;;;;;4971145;28;20041;-87
2022/01/29 04:56:48;;;;;;;31.92;17.63;;;6.40;54.30;;;;;;4949606;28;20460;-86
2022/01/29 04:59:14;;;;;;;30.58;19.05;;;6.40;54.30;;;;;;4976750;28;20031;-85
2022/01/29 05:01:40;;;;;;;31.60;17.88;;;6.40;54.30;;;;;;4955646;28;20030;-85
2022/01/29 05:04:06;;;;;;;31.88;18.67;;;6.40;54.30;;;;;;4962156;28;20106;-85
2022/01/29 05:06:32;;;;;;;28.55;17.48;;;6.40;54.30;;;;;;4979682;28;20649;-87
2022/01/29 05:08:58;;;;;;;33.58;18.42;;;6.40;54.30;;;;;;4954258;28;20034;-88
2022/01/29 05:11:24;;;;;;;34.42;18.70;;;6.40;54.30;;;;;;4994657;28;20121;-88
2022/01/29 05:13:50;;;;;;;33.03;19.27;;;6.40;54.30;;;;;;4957985;28;20034;-88
2022/01/29 05:27:02;;;;;;;31.83;18.65;;;6.40;54.40;;;;;;4967808;28;20031;-92
2022/01/29 05:29:31;;;;;;;33.92;19.08;;;6.40;54.40;;;;;;4964719;28;20056;-89
2022/01/29 05:31:58;;;;;;;33.50;18.83;;;6.40;54.50;;;;;;4960137;28;20038;-89
2022/01/29 05:34:24;;;;;;;32.80;19.02;;;6.40;54.50;;;;;;4953973;28;20054;-85
2022/01/29 05:36:50;;;;;;;33.88;18.88;;;6.40;54.50;;;;;;4976522;28;20121;-84
2022/01/29 05:39:16;;;;;;;31.80;18.45;;;6.40;54.60;;;;;;4943613;28;20148;-86
2022/01/29 05:41:42;;;;;;;32.95;18.30;;;6.40;54.70;;;;;;4975946;28;20076;-85
2022/01/29 05:44:08;;;;;;;32.85;19.80;;;6.40;54.80;;;;;;4958371;28;20056;-84
2022/01/29 05:46:35;;;;;;;34.80;19.40;;;6.40;54.80;;;;;;4975623;28;20035;-93
2022/01/29 05:49:01;;;;;;;33.50;18.88;;;6.40;54.90;;;;;;4940150;28;20603;-93
2022/01/29 05:51:30;;;;;;;34.95;18.88;;;6.40;54.90;;;;;;4949771;28;20034;-96
2022/01/29 05:54:00;;;;;;;36.50;19.35;;;6.40;55.00;;;;;;4935848;28;20208;-91
2022/01/29 05:56:27;;;;;;;31.35;18.60;;;6.40;55.00;;;;;;4943883;28;20042;-92
2022/01/29 05:58:53;;;;;;;32.10;19.05;;;6.40;55.10;;;;;;4960383;28;20061;-92
2022/01/29 06:01:20;;;;;;;35.05;19.23;;;6.40;55.10;;;;;;4942993;28;20042;-89
2022/01/29 06:03:46;;;;;;;31.17;18.80;;;6.40;55.10;;;;;;4959908;28;20034;-90
2022/01/29 06:06:12;;;;;;;31.88;18.77;;;6.40;55.10;;;;;;4927383;28;20126;-92
2022/01/29 06:08:38;;;;;;;37.05;20.27;;;6.40;55.20;;;;;;4945963;28;20518;-83
2022/01/29 06:11:04;;;;;;;32.78;18.67;;;6.40;55.10;;;;;;4958206;28;20117;-87
2022/01/29 06:13:30;;;;;;;33.60;19.05;;;6.40;55.20;;;;;;4966731;28;20038;-86
2022/01/29 06:15:56;;;;;;;34.47;19.35;;;6.40;55.20;;;;;;4952704;28;20650;-85
2022/01/29 06:18:24;;;;;;;34.28;20.55;;;6.40;55.20;;;;;;4972480;28;20030;-87
2022/01/29 06:20:53;;;;;;;34.85;20.10;;;6.40;55.20;;;;;;4969730;28;20034;-89
2022/01/29 06:23:29;;;;;;;35.17;19.77;;;6.40;55.20;;;;;;4963065;28;20046;-90
2022/01/29 06:26:00;;;;;;;33.92;19.65;;;6.40;55.80;;;;;;4971757;28;20039;-90
2022/01/29 06:28:26;;;;;;;33.17;19.38;;;6.40;55.40;;;;;;4968756;28;20073;-90
2022/01/29 06:30:52;;;;;;;36.20;19.05;;;6.40;55.20;;;;;;4945473;28;20085;-88
2022/01/29 06:33:18;;;;;;;34.45;20.05;;;6.40;55.20;;;;;;4960523;28;20031;-88
2022/01/29 06:35:44;;;;;;;32.97;19.25;;;6.40;55.20;;;;;;4944670;28;20421;-91
2022/01/29 06:38:13;;;;;;;36.63;19.92;;;6.40;55.20;;;;;;4963719;28;20038;-92
2022/01/29 06:40:40;;;;;;;33.35;19.27;;;6.40;55.20;;;;;;4958763;28;20039;-88
2022/01/29 06:43:07;;;;;;;33.55;19.02;;;6.40;55.10;;;;;;4938332;28;20137;-89
2022/01/29 06:45:35;;;;;;;36.30;19.63;;;6.40;55.10;;;;;;4946290;28;20392;-87
2022/01/29 06:48:02;;;;;;;35.28;19.20;;;6.40;55.10;;;;;;4949694;28;20035;-95
2022/01/29 06:50:28;;;;;;;34.47;18.42;;;6.40;55.10;;;;;;4951299;28;20031;-93
2022/01/29 06:52:55;;;;;;;34.03;18.50;;;6.40;55.10;;;;;;4941067;28;20451;-93
2022/01/29 06:55:21;;;;;;;35.25;19.25;;;6.40;55.10;;;;;;4956351;28;20033;-82
2022/01/29 06:57:48;;;;;;;32.65;18.98;;;6.40;55.00;;;;;;4961950;28;20098;-84
2022/01/29 07:00:14;;;;;;;30.50;18.13;;;6.40;55.10;;;;;;4964325;28;20467;-85
2022/01/29 07:02:40;;;;;;;28.45;17.00;;;6.40;55.70;;;;;;4974383;28;20490;-85
2022/01/29 07:05:09;;;;;;;31.35;17.90;;;6.50;56.80;;;;;;4977869;28;20417;-83
2022/01/29 07:07:35;;;;;;;32.03;17.50;;;6.50;58.00;;;;;;4971656;28;20033;-85
2022/01/29 07:10:01;;;;;;;30.10;17.25;;;6.50;58.80;;;;;;4955095;28;20050;-84
2022/01/29 07:12:27;;;;;;;27.55;15.55;;;6.60;59.20;;;;;;4993765;28;20031;-83
2022/01/29 07:14:53;;;;;;;27.52;16.05;;;6.60;59.20;;;;;;4962271;28;20022;-84
2022/01/29 07:17:22;;;;;;;28.95;15.88;;;6.60;59.20;;;;;;4962073;28;20038;-84
2022/01/29 07:19:50;;;;;;;29.38;15.93;;;6.70;59.40;;;;;;4997527;28;20030;-83
2022/01/29 07:22:17;;;;;;;29.17;16.50;;;6.60;59.60;;;;;;4974175;28;20034;-84
2022/01/29 07:24:43;;;;;;;29.23;16.85;;;6.70;59.90;;;;;;4999302;28;20096;-84
2022/01/29 07:27:10;;;;;;;27.85;16.00;;;6.70;60.00;;;;;;4998176;28;20065;-84
2022/01/29 07:29:36;;;;;;;23.40;15.10;;;6.70;60.20;;;;;;4998599;28;20038;-79
2022/01/29 07:32:02;;;;;;;26.05;14.30;;;6.70;60.30;;;;;;4997167;28;20468;-80
2022/01/29 07:34:28;;;;;;;24.80;14.05;;;6.80;60.70;;;;;;4996860;28;20501;-80
2022/01/29 07:36:56;;;;;;;42.25;14.15;;;6.80;60.80;;;;;;4995631;28;20038;-79
2022/01/29 07:39:23;;;;;;;21.63;13.23;;;6.80;61.10;;;;;;4997661;28;20121;-79
2022/01/29 07:41:49;;;;;;;26.27;14.55;;;6.80;61.20;;;;;;4993594;28;20046;-82
2022/01/29 07:44:16;;;;;;;25.15;14.18;;;6.80;61.40;;;;;;4993426;28;20062;-79
2022/01/29 07:46:42;;;;;;;26.85;15.10;;;6.80;61.50;;;;;;4993490;28;20501;-79
2022/01/29 07:49:09;;;;;;;23.05;14.00;;;6.80;61.50;;;;;;4992482;28;20041;-80
2022/01/29 07:51:35;;;;;;;24.77;13.27;;;6.90;61.60;;;;;;4992552;28;20037;-81
2022/01/29 07:54:02;;;;;;;23.63;13.02;;;6.90;61.80;;;;;;4983220;28;20030;-81
2022/01/29 07:56:28;;;;;;;25.17;14.05;;;6.90;61.80;;;;;;4991455;28;20146;-80
2022/01/29 07:58:54;;;;;;;25.17;13.77;;;6.90;61.60;;;;;;4991661;28;20125;-81
2022/01/29 08:01:20;;;;;;;26.42;14.25;;;7.00;61.90;;;;;;4995541;28;20152;-80
2022/01/29 08:03:46;;;;;;;24.80;14.05;;;7.00;61.90;;;;;;4996147;28;20069;-80
2022/01/29 08:06:13;;;;;;;23.65;13.90;;;7.00;62.00;;;;;;4991360;28;20042;-78
2022/01/29 08:08:40;;;;;;;22.35;14.55;;;7.00;62.10;;;;;;4996246;28;20527;-78
2022/01/29 08:11:07;;;;;;;23.98;13.20;;;7.10;62.20;;;;;;4986221;28;20046;-79
2022/01/29 08:13:34;;;;;;;22.73;13.05;;;7.10;62.30;;;;;;4987990;28;20053;-81
2022/01/29 08:16:00;;;;;;;26.88;14.10;;;7.10;62.40;;;;;;5011778;28;20037;-80
2022/01/29 08:18:26;;;;;;;25.58;14.35;;;7.10;62.40;;;;;;4986768;28;20037;-81
2022/01/29 08:20:52;;;;;;;23.42;13.70;;;7.10;62.50;;;;;;4986879;28;20044;-77
2022/01/29 08:23:18;;;;;;;24.15;13.38;;;7.10;62.90;;;;;;4984961;28;20120;-77
2022/01/29 08:25:44;;;;;;;24.33;14.00;;;7.20;63.10;;;;;;4985685;28;20045;-78
2022/01/29 08:28:10;;;;;;;22.63;13.50;;;7.20;63.30;;;;;;4984756;28;20543;-78
2022/01/29 08:30:36;;;;;;;24.20;13.02;;;7.20;63.40;;;;;;4984775;28;20039;-78
2022/01/29 08:33:02;;;;;;;23.30;13.50;;;7.20;63.60;;;;;;4984173;28;20036;-75
2022/01/29 08:35:28;;;;;;;26.58;13.93;;;7.30;63.80;;;;;;4985574;28;20038;-78
2022/01/29 08:37:56;;;;;;;24.15;13.23;;;7.30;64.00;;;;;;4984969;28;20121;-78
2022/01/29 08:40:22;;;;;;;23.17;13.68;;;7.30;64.00;;;;;;4985613;28;20058;-78
2022/01/29 08:42:48;;;;;;;22.38;13.75;;;7.40;64.00;;;;;;4991243;28;20575;-77
2022/01/29 08:45:14;;;;;;;26.58;14.98;;;7.40;64.20;;;;;;4984192;28;20563;-78
2022/01/29 08:47:41;;;;;;;24.33;13.68;;;7.40;64.20;;;;;;4974868;28;20129;-80
2022/01/29 08:50:10;;;;;;;21.45;14.55;;;7.40;64.90;;;;;;4983793;28;20521;-78
2022/01/29 08:52:37;;;;;;;25.70;15.23;;;7.40;64.30;;;;;;4972173;28;20085;-78
2022/01/29 08:55:06;;;;;;;24.85;14.55;;;7.50;64.30;;;;;;4985037;28;20107;-78
2022/01/29 08:57:32;;;;;;;24.65;14.63;;;7.50;64.50;;;;;;4984752;28;20458;-78
2022/01/29 08:59:58;;;;;;;24.30;14.15;;;7.50;64.50;;;;;;4985188;28;20044;-79
2022/01/29 09:02:24;;;;;;;27.15;14.00;;;7.50;64.40;;;;;;4986100;28;20030;-77
2022/01/29 09:04:52;;;;;;;27.95;14.38;;;7.60;64.40;;;;;;4985694;28;20034;-77
2022/01/29 09:07:18;;;;;;;26.20;15.30;;;7.60;64.40;;;;;;4984413;28;20903;-78
2022/01/29 09:09:45;;;;;;;24.98;13.90;;;7.60;64.50;;;;;;4971171;28;20030;-77
2022/01/29 09:12:13;;;;;;;24.52;14.50;;;7.60;64.40;;;;;;4991969;28;20137;-78
2022/01/29 09:14:40;;;;;;;25.73;14.90;;;7.60;64.50;;;;;;4969787;28;20116;-78
2022/01/29 09:17:06;;;;;;;25.15;14.55;;;7.60;64.50;;;;;;4993588;28;20038;-78
2022/01/29 09:19:32;;;;;;;26.98;16.00;;;7.70;64.40;;;;;;4991963;28;20483;-77
2022/01/29 09:21:58;;;;;;;28.67;14.90;;;7.70;64.50;;;;;;4993362;28;20572;-77
2022/01/29 09:24:24;;;;;;;29.05;14.73;;;7.70;64.60;;;;;;4992962;28;20088;-77
2022/01/29 09:26:50;;;;;;;24.73;13.65;;;7.70;64.50;;;;;;4990771;28;20416;-80
2022/01/29 09:29:16;;;;;;;25.65;14.85;;;7.70;65.10;;;;;;4991762;28;20097;-78
2022/01/29 09:31:42;;;;;;;25.70;15.32;;;7.80;64.60;;;;;;4976425;28;20611;-79
2022/01/29 09:34:08;;;;;;;25.27;14.52;;;7.80;64.70;;;;;;4975542;28;20041;-78
2022/01/29 09:36:34;;;;;;;26.00;14.43;;;7.80;65.40;;;;;;4993254;28;20068;-77
2022/01/29 09:39:00;;;;;;;27.67;14.65;;;7.80;64.80;;;;;;4994189;28;20069;-78
2022/01/29 09:41:27;;;;;;;28.58;15.77;;;7.80;64.90;;;;;;4976052;28;20105;-77
2022/01/29 09:43:55;;;;;;;26.00;15.60;;;7.80;64.90;;;;;;4992185;28;20133;-78
2022/01/29 09:46:26;;;;;;;25.70;15.38;;;7.80;64.80;;;;;;4993431;28;20038;-83
2022/01/29 09:48:54;;;;;;;27.95;15.13;;;7.90;65.20;;;;;;4969158;28;20111;-84
2022/01/29 09:51:20;;;;;;;25.73;15.02;;;7.80;65.40;;;;;;4993967;28;20034;-88
2022/01/29 09:53:46;;;;;;;26.95;15.65;;;7.90;65.60;;;;;;4964865;28;20065;-84
2022/01/29 09:56:13;;;;;;;29.88;16.92;;;7.90;65.80;;;;;;4983910;28;20052;-87
2022/01/29 09:58:40;;;;;;;26.77;15.57;;;7.90;66.00;;;;;;4972299;28;20048;-83
2022/01/29 10:01:06;;;;;;;28.90;15.85;;;7.90;66.30;;;;;;4996547;28;20096;-85
2022/01/29 10:03:33;;;;;;;31.05;16.90;;;8.00;66.70;;;;;;4966650;28;20872;-85
2022/01/29 10:06:01;;;;;;;30.70;16.13;;;8.00;66.60;;;;;;4980238;28;20042;-84
2022/01/29 10:08:27;;;;;;;32.28;17.38;;;8.00;66.60;;;;;;4964146;28;20030;-85
2022/01/29 10:10:57;;;;;;;27.52;16.27;;;8.00;66.60;;;;;;4956657;28;20139;-86
2022/01/29 10:13:34;;;;;;;33.35;16.85;;;8.00;66.50;;;;;;4964595;28;20128;-86
2022/01/29 10:16:04;;;;;;;30.77;16.98;;;8.10;66.50;;;;;;4965507;28;20090;-85
2022/01/29 10:18:31;;;;;;;29.95;17.58;;;8.10;66.50;;;;;;4964388;28;20039;-86
2022/01/29 10:21:11;;;;;;;30.83;16.10;;;8.10;66.40;;;;;;4964724;28;20514;-85
2022/01/29 10:23:38;;;;;;;35.38;17.58;;;8.10;66.30;;;;;;4975267;28;20038;-84
2022/01/29 10:26:05;;;;;;;29.85;17.20;;;8.10;66.20;;;;;;4981287;28;20046;-84
2022/01/29 10:28:32;;;;;;;31.02;17.70;;;8.20;66.20;;;;;;4997419;28;20027;-85
2022/01/29 10:31:06;;;;;;;32.38;17.02;;;8.10;66.10;;;;;;4984231;28;20054;-84
2022/01/29 10:33:38;;;;;;;30.88;18.25;;;8.20;66.20;;;;;;4971960;28;20445;-84
2022/01/29 10:36:05;;;;;;;32.03;17.85;;;8.20;66.00;;;;;;4988258;28;20038;-85
2022/01/29 10:38:40;;;;;;;27.13;16.70;;;8.20;66.00;;;;;;4972795;28;20118;-86
2022/01/29 10:41:22;;;;;;;31.30;17.58;;;8.20;66.00;;;;;;4972006;28;20050;-85
2022/01/29 10:43:58;;;;;;;29.88;17.15;;;8.20;65.90;;;;;;4975223;28;20065;-85
2022/01/29 10:46:26;;;;;;;28.17;18.00;;;8.20;65.80;;;;;;4968687;28;20125;-85
2022/01/29 10:48:52;;;;;;;31.00;17.52;;;8.20;65.80;;;;;;4968929;28;20035;-85
2022/01/29 10:51:18;;;;;;;28.00;17.05;;;8.30;65.70;;;;;;4952608;28;20035;-85
2022/01/29 10:53:43;;;;;;;30.83;17.10;;;8.30;65.80;;;;;;4956026;28;20038;-84
2022/01/29 10:56:09;;;;;;;31.67;18.08;;;8.30;65.70;;;;;;4973747;28;20035;-86
2022/01/29 10:58:40;;;;;;;28.25;17.67;;;8.30;65.70;;;;;;4973840;28;20099;-84
2022/01/29 11:01:10;;;;;;;30.42;16.90;;;8.30;65.60;;;;;;4972331;28;20584;-84
2022/01/29 11:03:36;;;;;;;31.42;17.15;;;8.30;65.70;;;;;;4940653;28;20070;-85
2022/01/29 11:06:03;;;;;;;31.90;18.25;;;8.30;65.70;;;;;;4973783;28;20069;-86
2022/01/29 11:08:29;;;;;;;29.67;18.15;;;8.30;65.80;;;;;;4960859;28;20043;-84
2022/01/29 11:10:56;;;;;;;32.33;18.60;;;8.30;66.00;;;;;;4967328;28;20059;-83
2022/01/29 11:13:22;;;;;;;28.35;17.90;;;8.40;66.20;;;;;;4989328;28;20121;-84
2022/01/29 11:15:52;;;;;;;30.25;17.67;;;8.40;66.30;;;;;;4974643;28;20035;-84
2022/01/29 11:18:18;;;;;;;31.52;17.48;;;8.40;66.40;;;;;;4987351;28;20035;-85
2022/01/29 11:20:44;;;;;;;29.92;17.75;;;8.40;66.50;;;;;;4955218;28;20134;-85
2022/01/29 11:23:11;;;;;;;32.05;18.05;;;8.40;66.60;;;;;;4967449;28;20038;-85
2022/01/29 11:25:38;;;;;;;31.33;18.13;;;8.40;66.40;;;;;;4967866;28;20039;-84
2022/01/29 11:28:17;;;;;;;32.00;18.67;;;8.40;66.50;;;;;;4951650;28;20038;-84
2022/01/29 11:30:45;;;;;;;35.65;19.95;;;8.40;66.60;;;;;;4971776;28;20093;-86
2022/01/29 11:33:11;;;;;;;34.90;19.02;;;8.50;66.50;;;;;;4973733;28;20027;-86
2022/01/29 11:35:55;;;;;;;29.20;17.77;;;8.50;66.60;;;;;;4951890;28;20079;-87
2022/01/29 11:38:32;;;;;;;29.23;17.35;;;8.50;66.60;;;;;;4973502;28;20457;-86
2022/01/29 11:40:59;;;;;;;29.73;17.88;;;8.50;66.50;;;;;;4954812;28;20038;-84
2022/01/29 11:43:34;;;;;;;31.45;18.48;;;8.50;66.50;;;;;;4967959;28;20170;-88
2022/01/29 11:46:32;;;;;;;33.17;17.92;;;8.50;66.70;;;;;;4966705;28;20035;-89
2022/01/29 11:49:16;;;;;;;28.25;18.23;;;8.50;66.40;;;;;;4939896;28;20039;-91
2022/01/29 11:51:47;;;;;;;34.63;19.13;;;8.50;66.20;;;;;;4951792;28;20094;-89
2022/01/29 11:54:21;;;;;;;35.13;19.20;;;8.50;66.00;;;;;;4983352;28;20046;-89
2022/01/29 11:56:49;;;;;;;31.02;19.48;;;8.60;65.90;;;;;;4951845;28;20046;-90
2022/01/29 11:59:21;;;;;;;33.80;19.42;;;8.50;65.70;;;;;;4966635;28;20041;-88
2022/01/29 12:01:55;;;;;;;32.30;19.17;;;8.60;65.70;;;;;;4949512;28;20573;-88
2022/01/29 12:04:23;;;;;;;34.88;20.02;;;8.60;65.50;;;;;;4964674;28;20041;-90
2022/01/29 12:07:28;;;;;;;32.88;18.70;;;8.60;65.40;;;;;;4950720;28;20035;-89
2022/01/29 12:10:05;;;;;;;34.53;19.50;;;8.60;65.40;;;;;;4982154;28;20162;-90
2022/01/29 12:12:36;;;;;;;33.60;20.02;;;8.60;65.20;;;;;;4981129;28;20033;-91
2022/01/29 12:15:34;;;;;;;35.05;20.95;;;8.50;65.20;;;;;;4992916;28;20034;-92
2022/01/29 12:18:02;;;;;;;34.83;20.27;;;8.60;65.30;;;;;;4989565;28;20398;-88
2022/01/29 12:20:28;;;;;;;34.65;19.58;;;8.50;65.20;;;;;;4946393;28;20023;-86
2022/01/29 12:22:59;;;;;;;33.28;19.45;;;8.60;65.20;;;;;;4991691;28;20038;-86
2022/01/29 12:25:27;;;;;;;31.02;18.85;;;8.60;65.30;;;;;;4993441;28;20049;-86
2022/01/29 12:27:58;;;;;;;37.10;20.80;;;8.60;65.40;;;;;;4980167;28;20034;-85
2022/01/29 12:30:29;;;;;;;34.53;19.88;;;8.60;65.60;;;;;;4962655;28;20510;-86
2022/01/29 12:32:58;;;;;;;35.38;19.45;;;8.60;65.90;;;;;;4994695;28;20058;-85
2022/01/29 12:35:49;;;;;;;34.58;20.70;;;8.60;66.00;;;;;;4961843;28;20035;-87
2022/01/29 12:38:43;;;;;;;34.10;20.35;;;8.60;66.30;;;;;;4976253;28;20525;-85
2022/01/29 12:41:29;;;;;;;32.78;19.08;;;8.60;66.40;;;;;;4975270;28;20044;-85
2022/01/29 12:44:01;;;;;;;;;;;8.60;66.40;;;;;;4986931;28;20403;-84
2022/01/29 12:46:31;;;;;;;36.40;19.85;;;8.70;66.60;;;;;;5006540;28;19917;-82
2022/01/29 12:49:05;;;;;;;34.20;19.52;;;8.70;66.50;;;;;;4989120;28;20034;-85
2022/01/29 12:51:31;;;;;;;34.83;20.73;;;8.60;66.70;;;;;;4989674;28;20125;-84
2022/01/29 12:53:59;;;;;;;34.60;20.30;;;8.70;66.60;;;;;;4956953;28;20077;-84
2022/01/29 12:56:34;;;;;;;32.03;18.83;;;8.60;66.50;;;;;;5004071;28;20034;-83